KL   EN   DA


ASIAQ
Weather Now GREENLAND SURVEY
Sorting:
Along the coast
Alphabetical
Location Updated [WGT/WGST] Temperature [°C] Wind [m/s] Air pressure [hPa] Relative humidity [%] Precipitation [mm]
PresentWind chillSpeedMax
Qaanaaq05.02 04:00n/an/a1,5 ⇓2,2984n/an/a
Kitsissut05.02 04:00-14,6-23,35,1 ⇓8,898481n/a
Kitsissorsuit05.02 04:00-20,6n/an/an/a97683n/a
Upernavik05.02 04:00-20,5-27,52,6 ⇐3,196588n/a
Qaarsut05.02 04:00-17,8-23,62,2 ⇗3,0969720,0
Nuussuaq05.02 03:00-17,5-28,57,2 ⇓10,397767n/a
Qeqertarsuaq05.02 04:00-17,2n/a0,6 ⇓1,5975490,0
Ilulissat05.02 04:00n/an/a5,0 ⇙6,2971n/an/a
Qasigiannguit05.02 04:00-18,2n/a0,6 ⇓2,0974530,0
Aasiaat05.02 04:00-14,9-22,84,2 ⇘6,4974700,0
Attu05.02 04:00-14,6-25,48,2 ⇓11,8n/a74n/a
Kangerlussuaq05.02 04:00-25,9-32,82,1 ⇙2,797076n/a
Sisimiut05.02 04:00-18,0-26,23,9 ⇓7,2976600,0
Maniitsoq05.02 04:00-13,7-19,12,4 ⇙3,2969630,0
Sioralikn/an/an/an/an/an/an/an/a
Kapisillit05.02 04:00-15,6-23,13,8 ⇐5,6964810,0
Nuuk Airportn/an/an/an/an/an/an/an/a
Nuuk City05.02 04:00n/a-18,5n/an/an/an/an/a
Ukiivik05.02 04:00-6,0-12,55,1 ⇘6,796987n/a
Paamiut05.02 04:00-5,5-11,34,2 ⇙5,6967720,0
Narsarsuaq05.02 04:00-7,1-10,41,8 ⇗2,297087n/a
Narsaqn/an/an/an/an/an/an/an/a
Nunarsuit05.02 04:00-5,0-13,810,3 ⇑14,996591n/a
Qaqortoq05.02 04:00-5,8-14,79,9 ⇖13,397082n/a
Angisoq05.02 04:00-7,2-17,211,8 ⇑16,097292n/a
Prins Christian Sund05.02 04:00-5,5-13,37,7 ⇗12,996349n/a
Nanortalikn/an/an/an/an/an/an/an/a
Ikermiuarsuk05.02 04:00-4,8-13,510,3 ⇓14,496394n/a
Ikermit05.02 04:00-4,6-8,62,6 ⇘3,696687n/a
Kulusuk05.02 04:00-3,0-12,816,3 ⇐23,397595n/a
Tasiilaq05.02 04:00-2,0-7,04,3 ⇐8,6973920,8
Aputiteeq05.02 04:00-4,4-8,93,1 ⇓4,698893n/a
Ittoqqortoormiit05.02 04:00-11,2-17,03,0 ⇙7,099056n/a
Nerlerit Inaat05.02 04:00-17,8-22,82,0 ⇒3,099968n/a
Daneborg05.02 04:00-14,5n/a1,0 ⇒3,099381n/a
Danmarkshavn05.02 04:00-5,6n/an/a13,098982n/a
Henrik Krøyer Holme05.02 04:00-9,5-18,58,0 ⇙11,0100585n/a
Station Nord05.02 04:00-10,0-17,55,0 ⇐7,0100478n/a
Kap Morris Jesup05.02 04:00-6,9-12,44,0 ⇖7,099940n/a

Advanced version
Data source - Operated by - Disclaimer